Time;durP1;ratioP1;P1;durP2;ratioP2;P2;SDS_P1;SDS_P2;PMS_P1;PMS_P2;Temp;Humidity;BMP_temperature;BMP_pressure;BME280_temperature;BME280_humidity;BME280_pressure;Samples;Min_cycle;Max_cycle;Signal;HPM_P1;HPM_P2
2023/06/17 00:00:57;;;;;;;;;;;;;;;21.54;74.04;96262.79;622104;228;63012;-58
2023/06/17 00:03:24;;;;;;;;;;;;;;;21.54;74.03;96260.12;622132;228;64338;-59
2023/06/17 00:05:52;;;;;;;;;;;;;;;21.54;74.03;96260.12;622090;228;64851;-59
2023/06/17 00:08:20;;;;;;;;;;;;;;;21.54;74.01;96252.09;622084;228;62846;-59
2023/06/17 00:10:47;;;;;;;;;;;;;;;21.56;74.02;96257.17;622085;228;67441;-59
2023/06/17 00:13:21;;;;;;;;;;;;;;;21.55;74.04;96256.34;622099;228;67080;-59
2023/06/17 00:15:53;;;;;;;;;;;;;;;21.55;74.00;96244.87;622138;228;62871;-59
2023/06/17 00:18:22;;;;;;;;;;;;;;;21.55;74.01;96253.67;622092;228;67282;-59
2023/06/17 00:20:52;;;;;;;;;;;;;;;21.54;74.00;96246.75;622102;228;66818;-59
2023/06/17 00:23:19;;;;;;;;;;;;;;;21.55;74.01;96242.19;622044;228;64887;-59
2023/06/17 00:25:47;;;;;;;;;;;;;;;21.55;74.00;96242.19;622121;228;67173;-59
2023/06/17 00:28:15;;;;;;;;;;;;;;;21.54;74.01;96241.41;622122;228;67003;-59
2023/06/17 00:30:44;;;;;;;;;;;;;;;21.54;74.03;96241.41;622095;228;63642;-59
2023/06/17 00:33:11;;;;;;;;;;;;;;;21.55;73.99;96234.17;622091;228;67427;-59
2023/06/17 00:35:39;;;;;;;;;;;;;;;21.54;73.98;96233.38;622115;228;66895;-59
2023/06/17 00:38:06;;;;;;;;;;;;;;;21.54;73.99;96229.92;622101;228;62662;-59
2023/06/17 00:40:34;;;;;;;;;;;;;;;21.54;74.01;96230.71;622107;228;64863;-59
2023/06/17 00:43:01;;;;;;;;;;;;;;;21.54;74.00;96227.25;622129;228;67609;-59
2023/06/17 00:45:29;;;;;;;;;;;;;;;21.54;73.99;96232.59;622029;228;65770;-59
2023/06/17 00:47:57;;;;;;;;;;;;;;;21.55;74.00;96228.83;622061;228;66993;-59
2023/06/17 00:50:24;;;;;;;;;;;;;;;21.55;73.99;96228.83;622144;228;66815;-59
2023/06/17 00:52:53;;;;;;;;;;;;;;;21.54;74.00;96232.59;622145;228;62703;-59
2023/06/17 00:55:21;;;;;;;;;;;;;;;21.54;73.99;96232.59;622052;228;67181;-59
2023/06/17 00:57:50;;;;;;;;;;;;;;;21.55;74.00;96234.17;622057;228;67342;-59
2023/06/17 01:00:18;;;;;;;;;;;;;;;21.54;74.01;96238.73;622100;228;65081;-59
2023/06/17 01:02:46;;;;;;;;;;;;;;;21.54;73.99;96233.38;622068;228;67087;-59
2023/06/17 01:05:16;;;;;;;;;;;;;;;21.55;73.99;96236.84;622103;228;65650;-59
2023/06/17 01:07:50;;;;;;;;;;;;;;;21.54;74.00;96237.95;622134;228;62986;-59
2023/06/17 01:10:19;;;;;;;;;;;;;;;21.54;74.01;96235.27;621934;228;67259;-59
2023/06/17 01:12:47;;;;;;;;;;;;;;;21.54;74.01;96244.08;621976;228;67085;-59
2023/06/17 01:15:16;;;;;;;;;;;;;;;21.54;74.01;96233.38;622130;228;62734;-59
2023/06/17 01:17:46;;;;;;;;;;;;;;;21.54;74.01;96221.91;622094;228;66893;-59
2023/06/17 01:20:15;;;;;;;;;;;;;;;21.54;74.00;96235.27;622136;228;65013;-59
2023/06/17 01:22:44;;;;;;;;;;;;;;;21.54;74.01;96232.59;622054;228;65156;-59
2023/06/17 01:25:13;;;;;;;;;;;;;;;21.54;74.04;96229.92;622062;228;67528;-59
2023/06/17 01:27:41;;;;;;;;;;;;;;;21.53;74.02;96231.81;622078;228;66959;-59
2023/06/17 01:30:11;;;;;;;;;;;;;;;21.53;73.99;96237.16;622097;228;65732;-59
2023/06/17 01:32:38;;;;;;;;;;;;;;;21.53;74.00;96236.37;622091;228;68072;-59
2023/06/17 01:35:10;;;;;;;;;;;;;;;21.54;74.02;96243.29;622119;228;66895;-59
2023/06/17 01:37:48;;;;;;;;;;;;;;;21.54;74.04;96232.59;622017;228;63028;-59
2023/06/17 01:40:17;;;;;;;;;;;;;;;21.53;74.02;96231.81;621234;228;64271;-59
2023/06/17 01:42:46;;;;;;;;;;;;;;;21.53;74.02;96237.16;622110;228;66849;-59
2023/06/17 01:45:14;;;;;;;;;;;;;;;21.53;74.00;96247.84;622107;228;65073;-59
2023/06/17 01:47:42;;;;;;;;;;;;;;;21.53;74.05;96236.37;622136;228;64409;-59
2023/06/17 01:50:10;;;;;;;;;;;;;;;21.53;74.02;96239.04;622089;228;64632;-59
2023/06/17 01:52:38;;;;;;;;;;;;;;;21.53;74.03;96237.16;622093;228;63064;-59
2023/06/17 01:55:06;;;;;;;;;;;;;;;21.53;74.03;96228.34;622107;228;66849;-59
2023/06/17 01:57:33;;;;;;;;;;;;;;;21.54;74.01;96240.62;622115;228;64868;-59
2023/06/17 02:00:01;;;;;;;;;;;;;;;21.53;74.03;96236.37;622127;228;63034;-59
2023/06/17 02:02:30;;;;;;;;;;;;;;;21.53;74.02;96242.50;622130;228;64354;-59
2023/06/17 02:04:57;;;;;;;;;;;;;;;21.53;74.01;96233.70;622126;228;65195;-59
2023/06/17 02:07:25;;;;;;;;;;;;;;;21.54;74.01;96235.27;622083;228;64962;-59
2023/06/17 02:09:52;;;;;;;;;;;;;;;21.53;74.01;96236.37;622095;228;67081;-59
2023/06/17 02:12:20;;;;;;;;;;;;;;;21.53;74.03;96228.34;622028;228;67337;-59
2023/06/17 02:14:47;;;;;;;;;;;;;;;21.53;74.00;96225.67;622109;228;62745;-59
2023/06/17 02:17:15;;;;;;;;;;;;;;;21.53;74.01;96220.33;622084;228;67890;-59
2023/06/17 02:19:43;;;;;;;;;;;;;;;21.53;74.00;96214.98;622080;228;66924;-59
2023/06/17 02:22:10;;;;;;;;;;;;;;;21.53;74.00;96220.33;622068;228;65237;-59
2023/06/17 02:24:38;;;;;;;;;;;;;;;21.54;74.01;96224.58;622100;228;65000;-59
2023/06/17 02:27:06;;;;;;;;;;;;;;;21.53;73.98;96218.44;622075;228;66887;-59
2023/06/17 02:29:34;;;;;;;;;;;;;;;21.54;74.01;96213.88;622111;228;64915;-59
2023/06/17 02:32:02;;;;;;;;;;;;;;;21.53;74.01;96220.33;622089;228;66891;-59
2023/06/17 02:34:29;;;;;;;;;;;;;;;21.53;74.01;96215.77;622075;228;64571;-59
2023/06/17 02:36:57;;;;;;;;;;;;;;;21.52;74.01;96208.81;622076;228;64966;-59
2023/06/17 02:39:24;;;;;;;;;;;;;;;21.53;74.00;96209.63;622132;228;65002;-59
2023/06/17 02:41:53;;;;;;;;;;;;;;;21.53;73.98;96205.08;622066;228;67036;-59
2023/06/17 02:44:21;;;;;;;;;;;;;;;21.52;73.99;96203.47;622078;228;64890;-59
2023/06/17 02:46:48;;;;;;;;;;;;;;;21.53;74.01;96206.96;622063;228;68053;-59
2023/06/17 02:49:16;;;;;;;;;;;;;;;21.54;73.98;96208.53;620956;228;67012;-59
2023/06/17 02:51:44;;;;;;;;;;;;;;;21.53;73.98;96210.42;620303;228;63071;-59
2023/06/17 02:54:11;;;;;;;;;;;;;;;21.52;73.99;96206.14;620241;228;67092;-59
2023/06/17 02:56:39;;;;;;;;;;;;;;;21.53;73.98;96209.63;620241;228;65108;-59
2023/06/17 02:59:08;;;;;;;;;;;;;;;21.52;73.98;96208.81;620301;228;65016;-59
2023/06/17 03:01:42;;;;;;;;;;;;;;;21.53;73.97;96209.63;620285;228;67184;-59
2023/06/17 03:04:13;;;;;;;;;;;;;;;21.52;73.98;96216.05;620276;228;66886;-59
2023/06/17 03:06:41;;;;;;;;;;;;;;;21.53;73.98;96217.66;620252;229;65885;-59
2023/06/17 03:09:10;;;;;;;;;;;;;;;21.53;73.98;96217.66;620291;229;67902;-59
2023/06/17 03:11:39;;;;;;;;;;;;;;;21.52;73.98;96222.18;620255;229;67036;-59
2023/06/17 03:14:07;;;;;;;;;;;;;;;21.52;73.96;96224.06;620187;229;66073;-60
2023/06/17 03:16:38;;;;;;;;;;;;;;;21.52;73.98;96230.20;620297;229;65916;-60
2023/06/17 03:19:04;;;;;;;;;;;;;;;21.52;73.99;96226.73;620204;229;66781;-60
2023/06/17 03:21:35;;;;;;;;;;;;;;;21.52;73.98;96230.20;620274;229;64913;-60
2023/06/17 03:24:03;;;;;;;;;;;;;;;21.51;73.97;96223.28;620254;229;67658;-60
2023/06/17 03:26:31;;;;;;;;;;;;;;;21.52;73.98;96229.41;620126;229;67314;-60
2023/06/17 03:28:59;;;;;;;;;;;;;;;21.52;74.00;96229.41;620202;229;65053;-60
2023/06/17 03:31:28;;;;;;;;;;;;;;;21.52;73.97;96232.88;620007;229;66998;-60
2023/06/17 03:33:55;;;;;;;;;;;;;;;21.51;73.96;96225.95;619905;229;68202;-60
2023/06/17 03:36:31;;;;;;;;;;;;;;;21.52;73.95;96234.76;619657;228;65093;-60
2023/06/17 03:38:56;;;;;;;;;;;;;;;21.52;73.96;96229.41;620096;228;67251;-60
2023/06/17 03:41:25;;;;;;;;;;;;;;;21.52;73.95;96240.11;620234;228;67212;-60
2023/06/17 03:43:53;;;;;;;;;;;;;;;21.52;73.98;96232.09;620328;228;65859;-60
2023/06/17 03:46:20;;;;;;;;;;;;;;;21.52;73.98;96240.11;620298;228;66687;-59
2023/06/17 03:48:48;;;;;;;;;;;;;;;21.51;73.99;96236.64;621045;228;67627;-59
2023/06/17 03:51:16;;;;;;;;;;;;;;;21.52;73.98;96242.78;621848;228;66121;-58
2023/06/17 03:53:45;;;;;;;;;;;;;;;21.52;73.98;96234.76;622146;228;67623;-59
2023/06/17 03:56:14;;;;;;;;;;;;;;;21.50;74.00;96241.20;621861;228;67345;-60
2023/06/17 03:58:41;;;;;;;;;;;;;;;21.52;74.00;96237.44;622107;228;66105;-59
2023/06/17 04:01:12;;;;;;;;;;;;;;;21.52;73.99;96238.22;622164;228;64611;-59
2023/06/17 04:03:38;;;;;;;;;;;;;;;21.50;73.97;96238.53;622082;228;67279;-59
2023/06/17 04:06:05;;;;;;;;;;;;;;;21.52;74.00;96237.44;622140;228;66092;-59
2023/06/17 04:08:33;;;;;;;;;;;;;;;21.51;73.97;96233.97;622171;228;67184;-60
2023/06/17 04:11:00;;;;;;;;;;;;;;;21.52;74.00;96235.55;622139;228;64942;-58
2023/06/17 04:13:28;;;;;;;;;;;;;;;21.52;73.99;96232.09;622171;228;62740;-59
2023/06/17 04:15:56;;;;;;;;;;;;;;;21.52;73.99;96234.76;622140;228;64797;-59
2023/06/17 04:18:29;;;;;;;;;;;;;;;21.52;74.01;96235.55;622143;228;66992;-59
2023/06/17 04:20:56;;;;;;;;;;;;;;;21.52;74.00;96237.44;621947;228;62661;-59
2023/06/17 04:23:24;;;;;;;;;;;;;;;21.51;73.97;96231.30;622049;228;67343;-60
2023/06/17 04:25:56;;;;;;;;;;;;;;;21.51;73.99;96233.97;622091;228;66860;-59
2023/06/17 04:28:23;;;;;;;;;;;;;;;21.50;74.00;96241.20;622109;228;64006;-58
2023/06/17 04:30:51;;;;;;;;;;;;;;;21.50;74.00;96241.20;622144;228;67331;-58
2023/06/17 04:33:19;;;;;;;;;;;;;;;21.51;74.01;96244.66;622179;228;66893;-58
2023/06/17 04:35:49;;;;;;;;;;;;;;;21.52;74.01;96246.24;622129;228;65040;-58
2023/06/17 04:38:17;;;;;;;;;;;;;;;21.50;74.00;96251.90;622134;228;67951;-60
2023/06/17 04:40:45;;;;;;;;;;;;;;;21.50;74.01;96254.57;622129;228;64874;-59
2023/06/17 04:43:13;;;;;;;;;;;;;;;21.50;74.01;96253.78;622116;228;62985;-59
2023/06/17 04:45:41;;;;;;;;;;;;;;;21.51;74.00;96258.03;622159;228;64567;-59
2023/06/17 04:48:09;;;;;;;;;;;;;;;21.50;73.98;96251.90;621860;228;65756;-59
2023/06/17 04:50:38;;;;;;;;;;;;;;;21.51;74.00;96260.70;620313;228;62518;-59
2023/06/17 04:53:05;;;;;;;;;;;;;;;21.50;74.01;96265.27;620311;228;65094;-59
2023/06/17 04:55:36;;;;;;;;;;;;;;;21.50;74.00;96267.94;620302;228;48346;-59
2023/06/17 04:58:05;;;;;;;;;;;;;;;21.50;74.01;96277.84;620032;228;62481;-59
2023/06/17 05:00:38;;;;;;;;;;;;;;;21.50;74.00;96281.30;618909;228;47962;-59
2023/06/17 05:03:07;;;;;;;;;;;;;;;21.50;73.98;96285.86;620287;228;46781;-59
2023/06/17 05:05:37;;;;;;;;;;;;;;;21.52;74.00;96282.88;620282;228;65635;-59
2023/06/17 05:08:05;;;;;;;;;;;;;;;21.50;74.00;96289.33;620301;228;67534;-59
2023/06/17 05:10:35;;;;;;;;;;;;;;;21.50;74.00;96289.33;620310;228;67759;-59
2023/06/17 05:13:03;;;;;;;;;;;;;;;21.50;74.01;96305.37;620296;228;63715;-59
2023/06/17 05:15:32;;;;;;;;;;;;;;;21.50;74.01;96294.67;620291;228;64651;-60
2023/06/17 05:17:59;;;;;;;;;;;;;;;21.50;74.00;96297.34;620281;228;67061;-59
2023/06/17 05:20:27;;;;;;;;;;;;;;;21.51;74.00;96300.80;620301;228;62502;-59
2023/06/17 05:22:55;;;;;;;;;;;;;;;21.49;74.01;96303.76;620330;228;67939;-59
2023/06/17 05:25:22;;;;;;;;;;;;;;;21.49;73.98;96298.41;620269;228;65011;-59
2023/06/17 05:27:51;;;;;;;;;;;;;;;21.51;74.00;96298.13;620311;228;65342;-59
2023/06/17 05:30:20;;;;;;;;;;;;;;;21.50;74.00;96296.55;620249;228;68082;-59
2023/06/17 05:32:49;;;;;;;;;;;;;;;21.49;73.97;96298.41;620315;228;67489;-60
2023/06/17 05:35:16;;;;;;;;;;;;;;;21.50;73.98;96297.34;620303;228;65289;-59
2023/06/17 05:37:44;;;;;;;;;;;;;;;21.50;73.97;96302.69;620259;228;67088;-59
2023/06/17 05:40:13;;;;;;;;;;;;;;;21.50;73.98;96309.92;620096;228;64736;-59
2023/06/17 05:42:41;;;;;;;;;;;;;;;21.51;73.99;96308.83;620292;228;65713;-59
2023/06/17 05:45:08;;;;;;;;;;;;;;;21.50;73.98;96302.69;620319;228;65017;-59
2023/06/17 05:47:36;;;;;;;;;;;;;;;21.50;73.98;96307.25;620352;228;65017;-59
2023/06/17 05:50:04;;;;;;;;;;;;;;;21.49;73.96;96306.43;621992;228;65203;-59
2023/06/17 05:52:33;;;;;;;;;;;;;;;21.50;74.00;96313.38;622163;228;64461;-59
2023/06/17 05:55:01;;;;;;;;;;;;;;;21.50;73.98;96309.92;622123;228;66918;-60
2023/06/17 05:57:29;;;;;;;;;;;;;;;21.50;73.97;96315.27;622116;228;62905;-59
2023/06/17 05:59:56;;;;;;;;;;;;;;;21.50;73.98;96309.92;622141;228;66973;-59
2023/06/17 06:02:24;;;;;;;;;;;;;;;21.49;73.98;96306.43;622152;228;66754;-59
2023/06/17 06:04:51;;;;;;;;;;;;;;;21.49;73.97;96306.43;622151;228;66135;-59
2023/06/17 06:07:19;;;;;;;;;;;;;;;21.50;73.97;96301.91;622153;228;66908;-59
2023/06/17 06:09:46;;;;;;;;;;;;;;;21.49;74.02;96306.43;622131;228;66998;-59
2023/06/17 06:12:14;;;;;;;;;;;;;;;21.47;74.32;96303.28;622149;228;62969;-59
2023/06/17 06:14:43;;;;;;;;;;;;;;;21.48;74.38;96304.85;622104;228;66812;-60
2023/06/17 06:17:11;;;;;;;;;;;;;;;21.49;74.42;96308.31;622161;228;64907;-59
2023/06/17 06:19:38;;;;;;;;;;;;;;;21.50;74.33;96312.59;622112;228;65205;-59
2023/06/17 06:22:06;;;;;;;;;;;;;;;21.50;74.31;96312.59;622123;228;67581;-59
2023/06/17 06:24:34;;;;;;;;;;;;;;;21.50;74.25;96313.38;622093;228;65673;-60
2023/06/17 06:27:02;;;;;;;;;;;;;;;21.52;74.33;96314.96;622100;228;65010;-59
2023/06/17 06:29:30;;;;;;;;;;;;;;;21.51;74.29;96314.17;622150;228;64566;-59
2023/06/17 06:31:58;;;;;;;;;;;;;;;21.52;74.28;96310.41;622152;228;64611;-59
2023/06/17 06:34:25;;;;;;;;;;;;;;;21.53;74.34;96317.36;622126;228;65172;-59
2023/06/17 06:36:55;;;;;;;;;;;;;;;21.52;74.39;96309.61;622138;228;65686;-59
2023/06/17 06:39:23;;;;;;;;;;;;;;;21.54;74.41;96318.14;622126;228;67075;-59
2023/06/17 06:41:51;;;;;;;;;;;;;;;21.53;74.44;96320.03;622113;228;63697;-59
2023/06/17 06:44:29;;;;;;;;;;;;;;;21.53;74.47;96316.57;621820;228;45359;-59
2023/06/17 06:46:57;;;;;;;;;;;;;;;21.54;74.49;96318.14;622086;228;67002;-58
2023/06/17 06:49:24;;;;;;;;;;;;;;;21.54;74.55;96315.47;620869;228;62919;-58
2023/06/17 06:51:52;;;;;;;;;;;;;;;21.54;74.52;96318.14;620232;228;66310;-58
2023/06/17 06:54:21;;;;;;;;;;;;;;;21.54;74.55;96320.82;615128;228;68274;-60
2023/06/17 06:56:49;;;;;;;;;;;;;;;21.54;74.57;96321.61;620234;228;65002;-59
2023/06/17 06:59:17;;;;;;;;;;;;;;;21.54;74.61;96318.14;620184;228;65111;-59
2023/06/17 07:01:44;;;;;;;;;;;;;;;21.54;74.60;96318.94;620194;228;66863;-59
2023/06/17 07:04:12;;;;;;;;;;;;;;;21.54;74.62;96321.61;620187;228;65778;-59
2023/06/17 07:06:40;;;;;;;;;;;;;;;21.54;74.61;96313.59;620243;229;67382;-59
2023/06/17 07:09:09;;;;;;;;;;;;;;;21.54;74.61;96313.59;620290;228;44453;-60
2023/06/17 07:11:37;;;;;;;;;;;;;;;21.54;74.60;96318.94;620269;228;65098;-59
2023/06/17 07:14:05;;;;;;;;;;;;;;;21.55;74.63;96317.05;620276;228;67839;-60
2023/06/17 07:16:33;;;;;;;;;;;;;;;21.55;74.65;96309.81;620274;228;67558;-59
2023/06/17 07:19:00;;;;;;;;;;;;;;;21.56;74.62;96310.64;620249;228;64865;-59
2023/06/17 07:21:28;;;;;;;;;;;;;;;21.56;74.61;96310.64;620313;228;67172;-60
2023/06/17 07:23:55;;;;;;;;;;;;;;;21.55;74.58;96312.49;620226;228;66905;-59
2023/06/17 07:26:23;;;;;;;;;;;;;;;21.56;74.57;96310.64;620257;228;64927;-59
2023/06/17 07:28:50;;;;;;;;;;;;;;;21.55;74.60;96309.81;615167;228;66115;-59
2023/06/17 07:31:18;;;;;;;;;;;;;;;21.56;74.58;96313.31;620277;228;67752;-59
2023/06/17 07:33:46;;;;;;;;;;;;;;;21.56;74.60;96310.64;620276;228;64953;-59
2023/06/17 07:36:14;;;;;;;;;;;;;;;21.57;74.63;96315.67;620332;228;65114;-59
2023/06/17 07:38:44;;;;;;;;;;;;;;;21.56;74.60;96322.13;620293;228;47939;-59
2023/06/17 07:41:12;;;;;;;;;;;;;;;21.57;74.59;96323.70;620281;228;62942;-59
2023/06/17 07:43:40;;;;;;;;;;;;;;;21.56;74.58;96311.42;620298;228;64953;-59
2023/06/17 07:46:07;;;;;;;;;;;;;;;21.57;74.63;96314.89;620307;228;64915;-59
2023/06/17 07:48:35;;;;;;;;;;;;;;;21.57;74.64;96306.86;620279;228;63822;-59
2023/06/17 07:51:02;;;;;;;;;;;;;;;21.57;74.61;96310.33;620064;228;65151;-59
2023/06/17 07:53:30;;;;;;;;;;;;;;;21.57;74.58;96317.56;620285;228;64843;-59
2023/06/17 07:55:58;;;;;;;;;;;;;;;21.58;74.61;96316.47;620307;228;64996;-59
2023/06/17 07:58:25;;;;;;;;;;;;;;;21.59;74.61;96320.75;620253;228;67185;-60
2023/06/17 08:00:53;;;;;;;;;;;;;;;21.58;74.61;96319.95;620330;228;66786;-59
2023/06/17 08:03:20;;;;;;;;;;;;;;;21.58;74.62;96321.81;620278;228;65026;-59
2023/06/17 08:05:48;;;;;;;;;;;;;;;21.58;74.61;96325.30;620286;228;67197;-59
2023/06/17 08:08:15;;;;;;;;;;;;;;;21.58;74.61;96327.16;620292;228;67239;-59
2023/06/17 08:10:43;;;;;;;;;;;;;;;21.57;74.62;96323.70;620278;228;65053;-59
2023/06/17 08:13:11;;;;;;;;;;;;;;;21.58;74.64;96325.30;620279;228;67232;-59
2023/06/17 08:15:38;;;;;;;;;;;;;;;21.58;74.63;96324.48;620345;228;64066;-59
2023/06/17 08:18:06;;;;;;;;;;;;;;;21.59;74.63;96328.77;620287;228;62778;-59
2023/06/17 08:20:33;;;;;;;;;;;;;;;21.58;74.65;96330.66;620267;228;66828;-59
2023/06/17 08:23:01;;;;;;;;;;;;;;;21.58;74.62;96327.16;620287;228;67358;-59
2023/06/17 08:25:29;;;;;;;;;;;;;;;21.58;74.66;96330.66;620269;228;63819;-59
2023/06/17 08:27:56;;;;;;;;;;;;;;;21.59;74.65;96334.91;620287;228;67048;-60
2023/06/17 08:30:23;;;;;;;;;;;;;;;21.59;74.64;96334.11;620292;228;66882;-59
2023/06/17 08:32:51;;;;;;;;;;;;;;;21.59;74.67;96337.58;620325;228;64891;-59
2023/06/17 08:35:18;;;;;;;;;;;;;;;21.59;74.67;96334.11;620192;228;67229;-59
2023/06/17 08:37:47;;;;;;;;;;;;;;;21.59;74.68;96334.11;620066;228;64977;-59
2023/06/17 08:40:18;;;;;;;;;;;;;;;21.59;74.67;96331.44;620235;228;65236;-59
2023/06/17 08:42:46;;;;;;;;;;;;;;;21.59;74.67;96331.44;620275;228;66996;-59
2023/06/17 08:45:14;;;;;;;;;;;;;;;21.60;74.68;96341.83;620308;228;64842;-60
2023/06/17 08:47:42;;;;;;;;;;;;;;;21.59;74.69;96337.58;620274;228;63801;-60
2023/06/17 08:50:10;;;;;;;;;;;;;;;21.59;74.67;96339.46;620289;228;67489;-59
2023/06/17 08:52:39;;;;;;;;;;;;;;;21.61;74.70;96345.32;620257;228;67149;-60
2023/06/17 08:55:07;;;;;;;;;;;;;;;21.59;74.71;96342.92;620322;228;65214;-60
2023/06/17 08:57:34;;;;;;;;;;;;;;;21.60;74.70;96344.50;620303;228;67293;-59
2023/06/17 09:00:03;;;;;;;;;;;;;;;21.60;74.70;96338.36;620309;228;67138;-60
2023/06/17 09:02:32;;;;;;;;;;;;;;;21.61;74.66;96342.64;620321;228;64968;-60
2023/06/17 09:04:59;;;;;;;;;;;;;;;21.61;74.69;96342.64;620267;228;67179;-60
2023/06/17 09:07:27;;;;;;;;;;;;;;;21.60;74.69;96343.71;620299;228;64954;-60
2023/06/17 09:09:55;;;;;;;;;;;;;;;21.59;74.68;96340.25;620291;228;65102;-60
2023/06/17 09:12:25;;;;;;;;;;;;;;;21.61;74.69;96350.67;620254;228;64956;-59
2023/06/17 09:14:56;;;;;;;;;;;;;;;21.61;74.67;96350.67;620306;228;67095;-60
2023/06/17 09:17:30;;;;;;;;;;;;;;;21.60;74.67;96346.39;620273;228;65052;-60
2023/06/17 09:20:09;;;;;;;;;;;;;;;21.61;74.68;96342.64;620308;228;67319;-60
2023/06/17 09:22:44;;;;;;;;;;;;;;;21.61;74.69;96339.97;620311;228;64922;-59
2023/06/17 09:25:14;;;;;;;;;;;;;;;21.61;74.69;96345.32;620295;228;65167;-59
2023/06/17 09:27:46;;;;;;;;;;;;;;;21.60;74.69;96343.71;620275;228;67256;-59
2023/06/17 09:30:14;;;;;;;;;;;;;;;21.61;74.68;96351.45;620122;228;66789;-60
2023/06/17 09:32:49;;;;;;;;;;;;;;;21.61;74.70;96345.32;620250;228;65167;-60
2023/06/17 09:35:14;;;;;;;;;;;;;;;21.61;74.71;96346.11;619974;228;67254;-60
2023/06/17 09:37:46;;;;;;;;;;;;;;;21.61;74.68;96345.32;620259;228;67380;-60
2023/06/17 09:40:13;;;;;;;;;;;;;;;21.61;74.69;96345.32;620242;228;63802;-60
2023/06/17 09:42:43;;;;;;;;;;;;;;;21.61;74.70;96345.32;620294;228;67133;-59
2023/06/17 09:45:12;;;;;;;;;;;;;;;21.61;74.70;96350.67;620289;228;67085;-58
2023/06/17 09:47:40;;;;;;;;;;;;;;;21.61;74.72;96350.67;620297;228;62972;-58
2023/06/17 09:50:10;;;;;;;;;;;;;;;21.61;74.74;96348.78;620271;228;65832;-58
2023/06/17 09:52:39;;;;;;;;;;;;;;;21.61;74.71;96345.32;620310;228;64773;-59
2023/06/17 09:55:07;;;;;;;;;;;;;;;21.61;74.69;96350.67;620312;228;65037;-59
2023/06/17 09:57:39;;;;;;;;;;;;;;;21.61;74.69;96354.13;619878;228;47769;-59
2023/06/17 10:00:10;;;;;;;;;;;;;;;21.61;74.69;96346.11;620074;228;64780;-60
2023/06/17 10:02:39;;;;;;;;;;;;;;;21.62;74.73;96357.59;620240;228;62740;-60
2023/06/17 10:05:12;;;;;;;;;;;;;;;21.62;74.70;96360.27;620235;228;67235;-59
2023/06/17 10:07:41;;;;;;;;;;;;;;;21.61;74.68;96359.48;620232;228;66703;-59
2023/06/17 10:10:10;;;;;;;;;;;;;;;21.62;74.71;96362.94;620303;228;64857;-59
2023/06/17 10:12:39;;;;;;;;;;;;;;;21.60;74.71;96359.76;620235;228;64687;-59
2023/06/17 10:15:07;;;;;;;;;;;;;;;21.62;74.73;96360.27;620283;228;66807;-59
2023/06/17 10:17:37;;;;;;;;;;;;;;;21.62;74.70;96360.27;620285;228;65083;-59
2023/06/17 10:20:07;;;;;;;;;;;;;;;21.62;74.71;96365.61;620249;228;64902;-59
2023/06/17 10:22:36;;;;;;;;;;;;;;;21.62;74.70;96368.29;620221;228;64849;-59
2023/06/17 10:25:06;;;;;;;;;;;;;;;21.62;74.71;96363.73;620128;228;62734;-58
2023/06/17 10:27:34;;;;;;;;;;;;;;;21.62;74.69;96369.08;620234;228;67321;-60
2023/06/17 10:30:01;;;;;;;;;;;;;;;21.63;74.69;96367.19;620307;228;66994;-60
2023/06/17 10:32:29;;;;;;;;;;;;;;;21.62;74.70;96368.29;620261;228;65032;-60
2023/06/17 10:35:13;;;;;;;;;;;;;;;21.63;74.71;96359.17;620303;228;65054;-60
2023/06/17 10:37:42;;;;;;;;;;;;;;;21.63;74.72;96365.31;619971;228;64961;-59
2023/06/17 10:40:19;;;;;;;;;;;;;;;21.63;74.68;96359.17;620229;228;65058;-58
2023/06/17 10:42:51;;;;;;;;;;;;;;;21.63;74.66;96359.95;620245;228;67257;-59
2023/06/17 10:45:19;;;;;;;;;;;;;;;21.62;74.68;96366.41;620271;228;66779;-59
2023/06/17 10:47:47;;;;;;;;;;;;;;;21.63;74.68;96359.17;620260;228;63718;-59
2023/06/17 10:50:14;;;;;;;;;;;;;;;21.63;74.71;96364.52;620267;228;64873;-59
2023/06/17 10:52:42;;;;;;;;;;;;;;;21.63;74.71;96354.61;620247;228;65025;-59
2023/06/17 10:55:10;;;;;;;;;;;;;;;21.62;74.67;96352.25;620294;228;62926;-59
2023/06/17 10:57:37;;;;;;;;;;;;;;;21.63;74.68;96356.50;620247;228;64977;-59
2023/06/17 11:00:08;;;;;;;;;;;;;;;21.64;74.62;96363.45;620297;228;64419;-59
2023/06/17 11:02:38;;;;;;;;;;;;;;;21.64;74.63;96355.43;620289;228;66880;-60
2023/06/17 11:05:07;;;;;;;;;;;;;;;21.64;74.63;96361.56;620271;228;67127;-61
2023/06/17 11:07:36;;;;;;;;;;;;;;;21.64;74.63;96355.43;620296;228;65142;-60
2023/06/17 11:10:03;;;;;;;;;;;;;;;21.63;74.63;96351.94;620287;229;65026;-60
2023/06/17 11:12:34;;;;;;;;;;;;;;;21.64;74.62;96347.41;620283;229;66889;-60
2023/06/17 11:15:03;;;;;;;;;;;;;;;21.63;74.60;96349.27;620245;229;64891;-60
2023/06/17 11:17:30;;;;;;;;;;;;;;;21.64;74.62;96345.52;620275;229;62971;-59
2023/06/17 11:19:57;;;;;;;;;;;;;;;21.63;74.54;96351.15;620270;229;65237;-59
2023/06/17 11:22:25;;;;;;;;;;;;;;;21.64;74.58;96350.87;620248;229;64933;-59
2023/06/17 11:24:52;;;;;;;;;;;;;;;21.64;74.59;96342.06;620251;229;63068;-59
2023/06/17 11:27:20;;;;;;;;;;;;;;;21.64;74.53;96337.50;620277;229;64826;-59
2023/06/17 11:29:48;;;;;;;;;;;;;;;21.64;74.56;96342.85;620257;228;64940;-59
2023/06/17 11:32:15;;;;;;;;;;;;;;;21.65;74.50;96343.64;620290;229;62823;-59
2023/06/17 11:34:42;;;;;;;;;;;;;;;21.65;74.49;96340.97;620312;229;67207;-58
2023/06/17 11:37:10;;;;;;;;;;;;;;;21.65;74.52;96341.75;620243;229;66845;-58
2023/06/17 11:39:38;;;;;;;;;;;;;;;21.65;74.50;96341.75;620280;229;62983;-59
2023/06/17 11:42:08;;;;;;;;;;;;;;;21.65;74.47;96340.97;620271;229;64900;-58
2023/06/17 11:44:36;;;;;;;;;;;;;;;21.66;74.48;96337.20;620260;229;66857;-59
2023/06/17 11:47:06;;;;;;;;;;;;;;;21.66;74.48;96334.52;620274;229;63001;-59
2023/06/17 11:49:34;;;;;;;;;;;;;;;21.65;74.46;96336.41;621392;228;66921;-59
2023/06/17 11:52:05;;;;;;;;;;;;;;;21.65;74.49;96332.94;622112;228;65014;-60
2023/06/17 11:54:31;;;;;;;;;;;;;;;21.66;74.44;96329.17;622079;228;62871;-59
2023/06/17 11:56:59;;;;;;;;;;;;;;;21.65;74.42;96331.06;622125;228;64841;-59
2023/06/17 11:59:28;;;;;;;;;;;;;;;21.65;74.45;96330.27;622178;228;65372;-59
2023/06/17 12:01:56;;;;;;;;;;;;;;;21.65;74.44;96322.25;622127;228;64883;-59
2023/06/17 12:04:24;;;;;;;;;;;;;;;21.65;74.40;96320.36;622112;228;68986;-60
2023/06/17 12:06:53;;;;;;;;;;;;;;;21.65;74.42;96317.69;622118;228;67224;-60
2023/06/17 12:09:21;;;;;;;;;;;;;;;21.65;74.37;96314.23;622146;228;64934;-60
2023/06/17 12:11:48;;;;;;;;;;;;;;;21.65;74.32;96319.58;622104;228;64823;-59
2023/06/17 12:14:16;;;;;;;;;;;;;;;21.66;74.35;96326.50;622157;228;64746;-59
2023/06/17 12:16:44;;;;;;;;;;;;;;;21.66;74.35;96321.15;622114;228;64875;-59
2023/06/17 12:19:13;;;;;;;;;;;;;;;21.66;74.28;96315.80;622149;228;67213;-59
2023/06/17 12:21:41;;;;;;;;;;;;;;;21.67;74.29;96325.43;621825;228;66806;-59
2023/06/17 12:24:08;;;;;;;;;;;;;;;21.66;74.27;96327.31;622174;228;65031;-59
2023/06/17 12:26:38;;;;;;;;;;;;;;;21.66;74.28;96327.31;622124;228;66671;-59
2023/06/17 12:29:06;;;;;;;;;;;;;;;21.66;74.20;96327.31;622093;228;66925;-59
2023/06/17 12:31:34;;;;;;;;;;;;;;;21.66;74.25;96329.17;622113;228;62812;-59
2023/06/17 12:34:01;;;;;;;;;;;;;;;21.66;74.26;96324.64;622165;228;67258;-58
2023/06/17 12:36:31;;;;;;;;;;;;;;;21.67;74.25;96325.43;622119;228;64935;-58
2023/06/17 12:39:01;;;;;;;;;;;;;;;21.67;74.25;96317.41;622164;228;64804;-59
2023/06/17 12:41:28;;;;;;;;;;;;;;;21.67;74.17;96322.76;622110;228;67022;-59
2023/06/17 12:43:56;;;;;;;;;;;;;;;21.66;74.17;96315.80;621952;228;64769;-59
2023/06/17 12:46:23;;;;;;;;;;;;;;;21.67;74.13;96317.41;622106;228;64888;-58
2023/06/17 12:48:51;;;;;;;;;;;;;;;21.68;74.17;96318.98;621270;228;67056;-59
2023/06/17 12:51:21;;;;;;;;;;;;;;;21.66;74.08;96313.95;619512;228;46445;-59
2023/06/17 12:53:48;;;;;;;;;;;;;;;21.67;74.12;96312.06;620155;228;62791;-59